createdAt,value
2023-04-18T00:01:23.736Z,6.09
2023-04-18T00:03:51.028Z,6.16
2023-04-18T00:06:18.000Z,6.17
2023-04-18T00:08:44.663Z,6.13
2023-04-18T00:11:11.220Z,6.18
2023-04-18T00:13:39.390Z,6.21
2023-04-18T00:16:07.762Z,6.21
2023-04-18T00:18:34.582Z,6.22
2023-04-18T00:21:01.994Z,6.25
2023-04-18T00:23:30.202Z,6.16
2023-04-18T00:25:56.771Z,6.09
2023-04-18T00:28:23.342Z,6.12
2023-04-18T00:30:49.952Z,6.11
2023-04-18T00:33:16.927Z,6.13
2023-04-18T00:35:43.485Z,6.05
2023-04-18T00:38:10.473Z,6.08
2023-04-18T00:40:37.868Z,6.10
2023-04-18T00:43:04.498Z,6.05
2023-04-18T00:45:31.245Z,6.07
2023-04-18T00:47:57.877Z,6.08
2023-04-18T00:50:24.870Z,6.17
2023-04-18T00:52:52.139Z,6.12
2023-04-18T00:55:18.957Z,6.13
2023-04-18T00:57:45.992Z,6.08
2023-04-18T01:00:13.209Z,6.11
2023-04-18T01:02:40.623Z,6.10
2023-04-18T01:05:08.073Z,6.11
2023-04-18T01:07:37.445Z,6.09
2023-04-18T01:10:04.393Z,6.07
2023-04-18T01:12:31.387Z,6.10
2023-04-18T01:14:58.844Z,6.05
2023-04-18T01:17:25.407Z,6.00
2023-04-18T01:19:51.921Z,5.98
2023-04-18T01:22:19.991Z,5.91
2023-04-18T01:24:46.523Z,5.92
2023-04-18T01:27:13.888Z,5.95
2023-04-18T01:29:41.062Z,5.98
2023-04-18T01:32:07.720Z,6.00
2023-04-18T01:34:34.417Z,5.93
2023-04-18T01:37:00.960Z,5.93
2023-04-18T01:39:28.562Z,5.95
2023-04-18T01:41:55.188Z,5.96
2023-04-18T01:44:21.737Z,5.96
2023-04-18T01:46:48.337Z,5.97
2023-04-18T01:49:14.916Z,5.93
2023-04-18T01:51:42.166Z,5.90
2023-04-18T01:54:08.681Z,5.83
2023-04-18T01:56:35.241Z,5.76
2023-04-18T01:59:01.937Z,5.78
2023-04-18T02:01:28.522Z,5.79
2023-04-18T02:03:55.453Z,5.80
2023-04-18T02:06:22.169Z,5.81
2023-04-18T02:08:48.768Z,5.83
2023-04-18T02:11:15.336Z,5.82
2023-04-18T02:13:41.876Z,5.82
2023-04-18T02:16:12.985Z,5.84
2023-04-18T02:18:40.162Z,5.75
2023-04-18T02:21:07.247Z,5.72
2023-04-18T02:23:33.754Z,5.75
2023-04-18T02:26:00.317Z,5.73
2023-04-18T02:28:26.819Z,5.72
2023-04-18T02:30:53.410Z,5.73
2023-04-18T02:33:19.958Z,5.71
2023-04-18T02:35:46.483Z,5.68
2023-04-18T02:38:13.852Z,5.71
2023-04-18T02:40:40.415Z,5.74
2023-04-18T02:43:07.053Z,5.74
2023-04-18T02:45:33.659Z,5.71
2023-04-18T02:48:00.302Z,5.72
2023-04-18T02:50:27.208Z,5.69
2023-04-18T02:52:53.795Z,5.66
2023-04-18T02:55:21.955Z,5.66
2023-04-18T02:57:48.517Z,5.65
2023-04-18T03:00:15.279Z,5.61
2023-04-18T03:02:42.094Z,5.63
2023-04-18T03:05:08.985Z,5.63
2023-04-18T03:07:35.766Z,5.62
2023-04-18T03:10:02.429Z,5.60
2023-04-18T03:12:28.966Z,5.54
2023-04-18T03:14:55.503Z,5.53
2023-04-18T03:17:22.360Z,5.53
2023-04-18T03:19:49.023Z,5.51
2023-04-18T03:22:16.112Z,5.50
2023-04-18T03:24:42.743Z,5.47
2023-04-18T03:27:09.306Z,5.49
2023-04-18T03:29:35.923Z,5.48
2023-04-18T03:32:02.626Z,5.50
2023-04-18T03:34:29.715Z,5.52
2023-04-18T03:36:56.664Z,5.53
2023-04-18T03:39:23.228Z,5.59
2023-04-18T03:41:49.883Z,5.64
2023-04-18T03:44:16.655Z,5.61
2023-04-18T03:46:43.385Z,5.59
2023-04-18T03:49:09.991Z,5.62
2023-04-18T03:51:43.461Z,5.64
2023-04-18T03:54:10.187Z,5.65
2023-04-18T03:56:36.879Z,5.71
2023-04-18T03:59:03.448Z,5.80
2023-04-18T04:01:30.096Z,5.84
2023-04-18T04:03:56.734Z,5.74
2023-04-18T04:06:24.117Z,5.72
2023-04-18T04:08:50.644Z,5.73
2023-04-18T04:11:17.589Z,5.81
2023-04-18T04:13:44.158Z,5.86
2023-04-18T04:16:10.813Z,5.85
2023-04-18T04:18:37.447Z,5.85
2023-04-18T04:21:05.333Z,5.76
2023-04-18T04:23:33.132Z,5.91
2023-04-18T04:26:03.712Z,6.22
2023-04-18T04:28:31.615Z,6.07
2023-04-18T04:30:58.318Z,5.90
2023-04-18T04:33:28.529Z,5.80
2023-04-18T04:35:55.658Z,5.74
2023-04-18T04:38:25.024Z,5.80
2023-04-18T04:40:51.601Z,5.83
2023-04-18T04:43:20.523Z,5.85
2023-04-18T04:45:52.653Z,5.89
2023-04-18T04:48:20.318Z,5.96
2023-04-18T04:50:55.433Z,5.92
2023-04-18T04:53:22.976Z,5.95
2023-04-18T04:55:49.775Z,6.02
2023-04-18T04:58:16.352Z,6.06
2023-04-18T05:00:43.035Z,6.02
2023-04-18T05:03:10.786Z,5.99
2023-04-18T05:05:37.593Z,6.00
2023-04-18T05:08:04.560Z,6.01
2023-04-18T05:10:31.311Z,5.89
2023-04-18T05:12:57.979Z,5.88
2023-04-18T05:15:25.096Z,5.87
2023-04-18T05:17:51.719Z,5.93
2023-04-18T05:20:18.310Z,5.92
2023-04-18T05:22:44.934Z,5.87
2023-04-18T05:25:12.549Z,5.86
2023-04-18T05:27:39.484Z,5.95
2023-04-18T05:30:06.996Z,5.99
2023-04-18T05:32:33.685Z,5.90
2023-04-18T05:35:00.391Z,5.87
2023-04-18T05:37:27.023Z,6.00
2023-04-18T05:39:53.585Z,6.00
2023-04-18T05:42:20.135Z,6.03
2023-04-18T05:44:46.679Z,6.12
2023-04-18T05:47:13.284Z,6.14
2023-04-18T05:49:39.846Z,6.17
2023-04-18T05:52:06.411Z,6.29
2023-04-18T05:54:32.966Z,6.29
2023-04-18T05:57:00.907Z,6.26
2023-04-18T05:59:28.830Z,6.25
2023-04-18T06:01:55.514Z,6.25
2023-04-18T06:04:22.193Z,6.31
2023-04-18T06:06:48.798Z,6.28
2023-04-18T06:09:15.327Z,6.32
2023-04-18T06:11:41.851Z,6.25
2023-04-18T06:14:08.384Z,6.21
2023-04-18T06:16:37.221Z,6.28
2023-04-18T06:19:05.220Z,6.29
2023-04-18T06:21:32.169Z,6.17
2023-04-18T06:23:58.980Z,6.22
2023-04-18T06:26:25.567Z,6.14
2023-04-18T06:28:52.313Z,6.09
2023-04-18T06:31:19.054Z,6.11
2023-04-18T06:33:45.671Z,6.08
2023-04-18T06:36:12.248Z,6.18
2023-04-18T06:38:38.753Z,6.26
2023-04-18T06:41:05.267Z,6.29
2023-04-18T06:43:31.812Z,6.27
2023-04-18T06:45:59.201Z,6.24
2023-04-18T06:48:25.867Z,6.27
2023-04-18T06:50:52.458Z,6.32
2023-04-18T06:53:19.016Z,6.31
2023-04-18T06:55:45.817Z,6.29
2023-04-18T06:58:16.094Z,6.28
2023-04-18T07:00:43.373Z,6.28
2023-04-18T07:03:13.407Z,6.27
2023-04-18T07:05:40.775Z,6.32
2023-04-18T07:08:08.041Z,6.34
2023-04-18T07:10:34.662Z,6.23
2023-04-18T07:13:01.236Z,6.36
2023-04-18T07:15:27.871Z,6.38
2023-04-18T07:17:54.502Z,6.44
2023-04-18T07:20:21.155Z,6.45
2023-04-18T07:22:48.540Z,6.45
2023-04-18T07:25:15.060Z,6.41
2023-04-18T07:27:41.717Z,6.46
2023-04-18T07:30:09.056Z,6.65
2023-04-18T07:32:35.834Z,6.57
2023-04-18T07:35:04.165Z,6.75
2023-04-18T07:37:31.308Z,6.87
2023-04-18T07:39:57.826Z,6.59
2023-04-18T07:42:24.366Z,6.55
2023-04-18T07:44:51.046Z,6.65
2023-04-18T07:47:22.255Z,6.85
2023-04-18T07:49:49.117Z,7.08
2023-04-18T07:52:15.855Z,7.20
2023-04-18T07:54:42.436Z,7.39
2023-04-18T07:57:08.991Z,7.20
2023-04-18T07:59:36.023Z,7.38
2023-04-18T08:02:02.903Z,7.36
2023-04-18T08:04:30.491Z,7.42
2023-04-18T08:06:57.267Z,7.13
2023-04-18T08:09:24.913Z,6.96
2023-04-18T08:11:51.472Z,6.93
2023-04-18T08:14:17.979Z,7.03
2023-04-18T08:16:44.661Z,6.93
2023-04-18T08:19:11.486Z,6.88
2023-04-18T08:21:39.303Z,6.82
2023-04-18T08:24:06.177Z,6.76
2023-04-18T08:26:32.717Z,6.90
2023-04-18T08:28:59.294Z,6.85
2023-04-18T08:31:25.928Z,6.70
2023-04-18T08:33:52.562Z,6.77
2023-04-18T08:36:19.186Z,6.85
2023-04-18T08:38:46.722Z,6.93
2023-04-18T08:41:14.824Z,6.92
2023-04-18T08:43:41.473Z,6.89
2023-04-18T08:46:09.136Z,6.97
2023-04-18T08:48:36.788Z,6.88
2023-04-18T08:51:04.934Z,6.96
2023-04-18T08:53:33.911Z,7.16
2023-04-18T08:56:01.574Z,7.27
2023-04-18T08:58:28.225Z,7.29
2023-04-18T09:00:55.355Z,7.28
2023-04-18T09:03:42.134Z,7.46
2023-04-18T09:06:09.647Z,7.90
2023-04-18T09:08:36.212Z,8.07
2023-04-18T09:11:26.156Z,8.44
2023-04-18T09:13:53.415Z,8.97
2023-04-18T09:16:22.438Z,9.15
2023-04-18T09:19:13.150Z,9.19
2023-04-18T09:21:41.539Z,9.42
2023-04-18T09:24:24.151Z,9.16
2023-04-18T09:26:53.761Z,9.33
2023-04-18T09:29:23.822Z,9.10
2023-04-18T09:32:00.102Z,9.18
2023-04-18T09:34:28.198Z,9.28
2023-04-18T09:37:11.833Z,9.37
2023-04-18T09:39:39.973Z,9.10
2023-04-18T09:42:07.951Z,8.75
2023-04-18T09:44:34.604Z,8.55
2023-04-18T09:47:01.197Z,8.38
2023-04-18T09:49:28.354Z,8.40
2023-04-18T09:51:56.231Z,8.65
2023-04-18T09:54:25.020Z,8.64
2023-04-18T09:56:54.152Z,8.78
2023-04-18T09:59:42.771Z,9.06
2023-04-18T10:02:16.373Z,9.55
2023-04-18T10:04:44.105Z,9.04
2023-04-18T10:07:11.408Z,9.13
2023-04-18T10:09:42.630Z,9.45
2023-04-18T10:12:09.544Z,9.01
2023-04-18T10:14:38.936Z,8.84
2023-04-18T10:17:06.382Z,9.36
2023-04-18T10:19:32.998Z,9.64
2023-04-18T10:22:01.048Z,9.57
2023-04-18T10:24:49.551Z,9.39
2023-04-18T10:27:17.751Z,9.12
2023-04-18T10:29:48.993Z,9.26
2023-04-18T10:32:19.983Z,9.16
2023-04-18T10:34:47.300Z,9.19
2023-04-18T10:37:14.282Z,9.03
2023-04-18T10:40:05.638Z,8.95
2023-04-18T10:42:47.464Z,9.06
2023-04-18T10:45:22.106Z,8.76
2023-04-18T10:47:49.002Z,8.63
2023-04-18T10:50:17.372Z,8.72
2023-04-18T10:52:44.874Z,8.72
2023-04-18T10:55:39.767Z,8.66
2023-04-18T10:58:06.476Z,8.47
2023-04-18T11:00:33.261Z,8.44
2023-04-18T11:03:00.637Z,8.72
2023-04-18T11:05:29.092Z,8.52
2023-04-18T11:07:55.748Z,8.57
2023-04-18T11:10:27.150Z,8.65
2023-04-18T11:12:55.010Z,8.29
2023-04-18T11:15:23.152Z,8.09
2023-04-18T11:18:01.022Z,7.93
2023-04-18T11:20:29.358Z,7.85
2023-04-18T11:22:58.704Z,7.65
2023-04-18T11:25:40.586Z,7.85
2023-04-18T11:28:07.245Z,8.01
2023-04-18T11:30:41.124Z,8.10
2023-04-18T11:33:11.882Z,8.13
2023-04-18T11:35:39.709Z,8.02
2023-04-18T11:38:07.556Z,8.02
2023-04-18T11:40:35.716Z,8.02
2023-04-18T11:43:03.775Z,8.06
2023-04-18T11:45:30.681Z,8.16
2023-04-18T11:47:58.682Z,8.07
2023-04-18T11:50:26.338Z,8.00
2023-04-18T11:52:54.369Z,8.02
2023-04-18T11:55:24.894Z,8.01
2023-04-18T11:57:53.632Z,8.06
2023-04-18T12:00:30.839Z,8.03
2023-04-18T12:02:59.156Z,8.06
2023-04-18T12:05:33.912Z,7.78
2023-04-18T12:08:11.413Z,7.88
2023-04-18T12:10:38.884Z,7.81
2023-04-18T12:13:09.012Z,7.91
2023-04-18T12:15:39.297Z,7.93
2023-04-18T12:18:08.474Z,8.01
2023-04-18T12:20:50.428Z,7.99
2023-04-18T12:23:34.321Z,8.00
2023-04-18T12:26:08.520Z,8.03
2023-04-18T12:28:35.749Z,7.91
2023-04-18T12:31:05.435Z,7.91
2023-04-18T12:33:31.980Z,7.90
2023-04-18T12:35:59.156Z,7.92
2023-04-18T12:38:25.693Z,8.06
2023-04-18T12:40:52.579Z,8.00
2023-04-18T12:43:19.712Z,7.86
2023-04-18T12:45:46.937Z,7.83
2023-04-18T12:48:14.000Z,7.84
2023-04-18T12:50:40.861Z,7.87
2023-04-18T12:53:07.619Z,7.98
2023-04-18T12:55:34.588Z,8.01
2023-04-18T12:58:01.157Z,7.99
2023-04-18T13:00:30.423Z,8.06
2023-04-18T13:02:58.024Z,7.94
2023-04-18T13:05:28.573Z,8.13
2023-04-18T13:08:08.512Z,8.20
2023-04-18T13:10:42.398Z,8.26
2023-04-18T13:13:08.939Z,8.25
2023-04-18T13:15:36.270Z,8.22
2023-04-18T13:18:06.220Z,8.17
2023-04-18T13:20:34.051Z,8.24
2023-04-18T13:23:02.626Z,8.26
2023-04-18T13:25:29.305Z,8.26
2023-04-18T13:27:57.488Z,8.33
2023-04-18T13:30:24.112Z,8.22
2023-04-18T13:32:50.864Z,8.20
2023-04-18T13:35:17.562Z,8.18
2023-04-18T13:37:44.131Z,8.02
2023-04-18T13:40:11.255Z,7.93
2023-04-18T13:42:39.305Z,7.90
2023-04-18T13:45:06.352Z,7.89
2023-04-18T13:47:32.936Z,7.78
2023-04-18T13:49:59.668Z,7.82
2023-04-18T13:52:26.341Z,7.85
2023-04-18T13:54:53.137Z,7.75
2023-04-18T13:57:19.898Z,7.78
2023-04-18T13:59:46.855Z,7.78
2023-04-18T14:02:13.712Z,7.73
2023-04-18T14:04:40.985Z,7.69
2023-04-18T14:07:07.993Z,7.67
2023-04-18T14:09:34.799Z,7.69
2023-04-18T14:12:02.106Z,7.68
2023-04-18T14:14:28.744Z,7.76
2023-04-18T14:16:55.319Z,7.76
2023-04-18T14:19:21.908Z,7.78
2023-04-18T14:21:48.570Z,7.86
2023-04-18T14:24:15.155Z,7.81
2023-04-18T14:26:41.809Z,7.67
2023-04-18T14:29:08.537Z,7.76
2023-04-18T14:31:35.327Z,7.62
2023-04-18T14:34:02.067Z,7.64
2023-04-18T14:36:28.672Z,7.73
2023-04-18T14:38:55.349Z,7.77
2023-04-18T14:41:21.957Z,7.77
2023-04-18T14:43:48.728Z,7.77
2023-04-18T14:46:19.017Z,7.72
2023-04-18T14:48:49.018Z,7.71
2023-04-18T14:51:16.572Z,7.66
2023-04-18T14:53:44.383Z,7.65
2023-04-18T14:56:11.218Z,7.56
2023-04-18T14:58:37.878Z,7.47
2023-04-18T15:01:05.624Z,7.52
2023-04-18T15:03:32.710Z,7.54
2023-04-18T15:05:59.732Z,7.48
2023-04-18T15:08:26.346Z,7.49
2023-04-18T15:10:52.895Z,7.36
2023-04-18T15:13:20.826Z,7.25
2023-04-18T15:15:55.083Z,7.14
2023-04-18T15:18:21.788Z,6.99
2023-04-18T15:20:48.519Z,6.92
2023-04-18T15:23:15.190Z,6.82
2023-04-18T15:25:42.669Z,6.83
2023-04-18T15:28:09.337Z,6.94
2023-04-18T15:30:36.347Z,6.91
2023-04-18T15:33:03.005Z,6.96
2023-04-18T15:35:29.601Z,7.05
2023-04-18T15:37:57.460Z,7.09
2023-04-18T15:40:24.424Z,7.09
2023-04-18T15:42:53.534Z,7.04
2023-04-18T15:45:20.960Z,7.14
2023-04-18T15:47:47.620Z,7.17
2023-04-18T15:50:16.014Z,7.20
2023-04-18T15:52:42.734Z,7.23
2023-04-18T15:55:11.854Z,7.22
2023-04-18T15:57:38.559Z,7.31
2023-04-18T16:00:11.697Z,7.41
2023-04-18T16:02:38.366Z,7.45
2023-04-18T16:05:05.446Z,7.42
2023-04-18T16:07:32.040Z,7.43
2023-04-18T16:09:58.553Z,7.36
2023-04-18T16:12:25.220Z,7.35
2023-04-18T16:14:51.790Z,7.31
2023-04-18T16:17:18.324Z,7.22
2023-04-18T16:19:44.914Z,7.18
2023-04-18T16:22:12.431Z,7.12
2023-04-18T16:24:40.865Z,7.06
2023-04-18T16:27:08.617Z,7.00
2023-04-18T16:29:35.438Z,6.94
2023-04-18T16:32:02.029Z,6.90
2023-04-18T16:34:28.593Z,6.83
2023-04-18T16:36:55.731Z,6.78
2023-04-18T16:39:22.344Z,6.76
2023-04-18T16:41:48.937Z,6.71
2023-04-18T16:44:15.816Z,6.69
2023-04-18T16:46:42.900Z,6.65
2023-04-18T16:49:09.506Z,6.62
2023-04-18T16:51:37.380Z,6.60
2023-04-18T16:54:05.010Z,6.57
2023-04-18T16:56:31.805Z,6.51
2023-04-18T16:58:58.758Z,6.47
2023-04-18T17:01:25.596Z,6.45
2023-04-18T17:03:52.316Z,6.40
2023-04-18T17:06:19.458Z,6.37
2023-04-18T17:08:46.192Z,6.30
2023-04-18T17:11:12.729Z,6.25
2023-04-18T17:13:39.295Z,6.21
2023-04-18T17:16:07.413Z,6.16
2023-04-18T17:18:34.007Z,6.12
2023-04-18T17:21:00.635Z,6.07
2023-04-18T17:23:27.217Z,6.02
2023-04-18T17:25:53.820Z,5.98
2023-04-18T17:28:21.292Z,5.95
2023-04-18T17:30:47.855Z,5.91
2023-04-18T17:33:14.450Z,5.85
2023-04-18T17:35:41.628Z,5.83
2023-04-18T17:38:10.493Z,5.79
2023-04-18T17:40:37.261Z,5.73
2023-04-18T17:43:03.797Z,5.70
2023-04-18T17:45:30.466Z,5.69
2023-04-18T17:47:58.292Z,5.68
2023-04-18T17:50:25.128Z,5.68
2023-04-18T17:52:51.672Z,5.67
2023-04-18T17:55:18.464Z,5.68
2023-04-18T17:57:45.294Z,5.69
2023-04-18T18:00:13.709Z,5.71
2023-04-18T18:02:42.826Z,5.71
2023-04-18T18:05:13.853Z,5.71
2023-04-18T18:07:43.142Z,5.71
2023-04-18T18:10:10.846Z,5.72
2023-04-18T18:12:38.184Z,5.72
2023-04-18T18:15:05.382Z,5.71
2023-04-18T18:17:31.985Z,5.70
2023-04-18T18:19:58.568Z,5.70
2023-04-18T18:22:26.146Z,5.71
2023-04-18T18:24:52.849Z,5.70
2023-04-18T18:27:20.387Z,5.71
2023-04-18T18:29:48.062Z,5.70
2023-04-18T18:32:14.684Z,5.72
2023-04-18T18:34:41.357Z,5.72
2023-04-18T18:37:07.998Z,5.75
2023-04-18T18:39:34.787Z,5.78
2023-04-18T18:42:02.459Z,5.79
2023-04-18T18:44:29.062Z,5.80
2023-04-18T18:46:56.714Z,5.84
2023-04-18T18:49:23.424Z,5.84
2023-04-18T18:51:50.058Z,5.86
2023-04-18T18:54:16.654Z,5.89
2023-04-18T18:56:44.256Z,5.86
2023-04-18T18:59:11.317Z,5.81
2023-04-18T19:01:39.058Z,5.81
2023-04-18T19:04:05.801Z,5.79
2023-04-18T19:06:33.894Z,5.80
2023-04-18T19:09:00.927Z,5.81
2023-04-18T19:11:28.921Z,5.80
2023-04-18T19:13:56.717Z,5.78
2023-04-18T19:16:23.356Z,5.78
2023-04-18T19:18:50.741Z,5.79
2023-04-18T19:21:17.804Z,5.82
2023-04-18T19:23:44.468Z,5.81
2023-04-18T19:26:11.046Z,5.80
2023-04-18T19:28:37.671Z,5.81
2023-04-18T19:31:04.504Z,5.81
2023-04-18T19:33:33.461Z,5.79
2023-04-18T19:36:00.064Z,5.76
2023-04-18T19:38:29.013Z,5.68
2023-04-18T19:40:56.651Z,5.65
2023-04-18T19:43:23.236Z,5.58
2023-04-18T19:45:50.927Z,5.48
2023-04-18T19:48:18.818Z,5.41
2023-04-18T19:50:46.217Z,5.39
2023-04-18T19:53:12.854Z,5.37
2023-04-18T19:55:39.705Z,5.34
2023-04-18T19:58:06.337Z,5.35
2023-04-18T20:00:34.312Z,5.34
2023-04-18T20:03:01.208Z,5.35
2023-04-18T20:05:27.958Z,5.37
2023-04-18T20:07:54.591Z,5.38
2023-04-18T20:10:22.372Z,5.40
2023-04-18T20:12:50.048Z,5.39
2023-04-18T20:15:16.978Z,5.38
2023-04-18T20:17:43.858Z,5.40
2023-04-18T20:20:11.477Z,5.41
2023-04-18T20:22:40.300Z,5.41
2023-04-18T20:25:07.190Z,5.42
2023-04-18T20:27:33.782Z,5.41
2023-04-18T20:30:00.409Z,5.40
2023-04-18T20:32:27.260Z,5.42
2023-04-18T20:34:53.955Z,5.43
2023-04-18T20:37:20.669Z,5.45
2023-04-18T20:39:47.637Z,5.47
2023-04-18T20:42:14.358Z,5.45
2023-04-18T20:44:43.226Z,5.46
2023-04-18T20:47:09.868Z,5.47
2023-04-18T20:49:36.513Z,5.49
2023-04-18T20:52:03.159Z,5.51
2023-04-18T20:54:29.763Z,5.50
2023-04-18T20:56:56.283Z,5.50
2023-04-18T20:59:22.816Z,5.51
2023-04-18T21:01:49.402Z,5.53
2023-04-18T21:04:16.543Z,5.50
2023-04-18T21:06:43.373Z,5.52
2023-04-18T21:09:09.957Z,5.52
2023-04-18T21:11:36.512Z,5.51
2023-04-18T21:14:06.075Z,5.48
2023-04-18T21:16:32.867Z,5.48
2023-04-18T21:18:59.482Z,5.50
2023-04-18T21:21:26.021Z,5.59
2023-04-18T21:23:52.589Z,5.65
2023-04-18T21:26:19.165Z,5.66
2023-04-18T21:29:12.098Z,5.69
2023-04-18T21:31:38.703Z,5.71
2023-04-18T21:34:05.587Z,5.69
2023-04-18T21:36:32.428Z,5.72
2023-04-18T21:39:01.042Z,5.70
2023-04-18T21:41:27.705Z,5.70
2023-04-18T21:43:54.396Z,5.68
2023-04-18T21:46:21.269Z,5.64
2023-04-18T21:48:48.499Z,5.64
2023-04-18T21:51:16.793Z,5.64
2023-04-18T21:53:43.531Z,5.61
2023-04-18T21:56:10.987Z,5.54
2023-04-18T21:58:37.633Z,5.47
2023-04-18T22:01:04.190Z,5.41
2023-04-18T22:03:31.669Z,5.35
2023-04-18T22:05:58.940Z,5.29
2023-04-18T22:08:26.273Z,5.25
2023-04-18T22:10:57.813Z,5.19
2023-04-18T22:13:25.988Z,5.15
2023-04-18T22:15:52.551Z,5.09
2023-04-18T22:18:19.320Z,5.04
2023-04-18T22:20:47.039Z,4.96
2023-04-18T22:23:14.157Z,4.89
2023-04-18T22:25:40.964Z,4.82
2023-04-18T22:28:07.976Z,4.73
2023-04-18T22:30:34.949Z,4.66
2023-04-18T22:33:01.685Z,4.59
2023-04-18T22:35:28.423Z,4.52
2023-04-18T22:37:55.786Z,4.46
2023-04-18T22:40:22.655Z,4.44
2023-04-18T22:42:51.849Z,4.43
2023-04-18T22:45:19.496Z,4.43
2023-04-18T22:47:46.741Z,4.44
2023-04-18T22:50:13.999Z,4.47
2023-04-18T22:52:40.857Z,4.48
2023-04-18T22:55:08.169Z,4.45
2023-04-18T22:57:34.783Z,4.42
2023-04-18T23:00:01.414Z,4.42
2023-04-18T23:02:28.212Z,4.38
2023-04-18T23:04:58.347Z,4.33
2023-04-18T23:07:25.050Z,4.30
2023-04-18T23:09:51.588Z,4.28
2023-04-18T23:12:18.147Z,4.30
2023-04-18T23:14:44.714Z,4.33
2023-04-18T23:17:11.284Z,4.33
2023-04-18T23:19:38.709Z,4.34
2023-04-18T23:22:05.515Z,4.35
2023-04-18T23:24:32.133Z,4.39
2023-04-18T23:26:58.700Z,4.40
2023-04-18T23:29:25.396Z,4.39
2023-04-18T23:31:51.923Z,4.39
2023-04-18T23:34:18.508Z,4.47
2023-04-18T23:36:45.239Z,4.43
2023-04-18T23:39:11.868Z,4.41
2023-04-18T23:41:38.419Z,4.44
2023-04-18T23:44:05.725Z,4.51
2023-04-18T23:46:33.358Z,4.58
2023-04-18T23:49:00.907Z,4.52
2023-04-18T23:51:28.005Z,4.55
2023-04-18T23:53:54.651Z,4.53
2023-04-18T23:56:21.827Z,4.50
2023-04-18T23:58:48.402Z,4.57
